Time;durP1;ratioP1;P1;durP2;ratioP2;P2;SDS_P1;SDS_P2;PMS_P1;PMS_P2;Temp;Humidity;BMP_temperature;BMP_pressure;BME280_temperature;BME280_humidity;BME280_pressure;Samples;Min_cycle;Max_cycle;Signal;HPM_P1;HPM_P2
2023/03/07 00:01:16;;;;;;;;;;;;;;;;;;5052713;28;19925;-65
2023/03/07 00:03:42;;;;;;;;;;;;;;;;;;5054441;28;19971;-65
2023/03/07 00:06:07;;;;;;;;;;;;;;;;;;5052606;28;19920;-65
2023/03/07 00:08:33;;;;;;;;;;;;;;;;;;5051002;28;19931;-65
2023/03/07 00:10:59;;;;;;;;;;;;;;;;;;5047918;28;20386;-65
2023/03/07 00:13:26;;;;;;;;;;;;;;;;;;5053437;28;19933;-65
2023/03/07 00:15:52;;;;;;;;;;;;;;;;;;5045931;28;19972;-65
2023/03/07 00:18:18;;;;;;;;;;;;;;;;;;5053137;28;19968;-65
2023/03/07 00:20:44;;;;;;;;;;;;;;;;;;5033338;28;20286;-65
2023/03/07 00:23:10;;;;;;;;;;;;;;;;;;5050945;28;19932;-65
2023/03/07 00:25:36;;;;;;;;;;;;;;;;;;5035985;28;19928;-65
2023/03/07 00:28:02;;;;;;;;;;;;;;;;;;5054059;28;20007;-65
2023/03/07 00:30:28;;;;;;;;;;;;;;;;;;5032875;28;20015;-65
2023/03/07 00:32:54;;;;;;;;;;;;;;;;;;5053130;28;19931;-65
2023/03/07 00:35:20;;;;;;;;;;;;;;;;;;5051486;28;19955;-65
2023/03/07 00:37:45;;;;;;;;;;;;;;;;;;5049730;28;19929;-65
2023/03/07 00:40:11;;;;;;;;;;;;;;;;;;5052869;28;19930;-66
2023/03/07 00:42:37;;;;;;;;;;;;;;;;;;5053978;28;20417;-66
2023/03/07 00:45:03;;;;;;;;;;;;;;;;;;5053200;28;19925;-66
2023/03/07 00:47:29;;;;;;;;;;;;;;;;;;5052033;28;19974;-66
2023/03/07 00:49:55;;;;;;;;;;;;;;;;;;5047558;28;20308;-66
2023/03/07 00:52:21;;;;;;;;;;;;;;;;;;5051857;28;19924;-65
2023/03/07 00:54:47;;;;;;;;;;;;;;;;;;5053532;28;19974;-65
2023/03/07 00:57:13;;;;;;;;;;;;;;;;;;5051385;28;19921;-65
2023/03/07 00:59:38;;;;;;;;;;;;;;;;;;5052225;28;20480;-66
2023/03/07 01:02:04;;;;;;;;;;;;;;;;;;5052613;28;20162;-65
2023/03/07 01:04:30;;;;;;;;;;;;;;;;;;5053328;28;20378;-65
2023/03/07 01:06:56;;;;;;;;;;;;;;;;;;5041706;28;19979;-63
2023/03/07 01:09:22;;;;;;;;;;;;;;;;;;5050727;28;19928;-63
2023/03/07 01:11:48;;;;;;;;;;;;;;;;;;5052446;28;19921;-64
2023/03/07 01:14:14;;;;;;;;;;;;;;;;;;5052410;28;19932;-64
2023/03/07 01:16:40;;;;;;;;;;;;;;;;;;5051312;28;19928;-64
2023/03/07 01:19:06;;;;;;;;;;;;;;;;;;5030356;28;19978;-64
2023/03/07 01:21:32;;;;;;;;;;;;;;;;;;5050436;28;19927;-64
2023/03/07 01:23:57;;;;;;;;;;;;;;;;;;5049175;28;20406;-66
2023/03/07 01:26:23;;;;;;;;;;;;;;;;;;5050083;28;19925;-66
2023/03/07 01:28:49;;;;;;;;;;;;;;;;;;5053154;28;19974;-66
2023/03/07 01:31:15;;;;;;;;;;;;;;;;;;5052821;28;19925;-66
2023/03/07 01:33:41;;;;;;;;;;;;;;;;;;5048332;28;20275;-66
2023/03/07 01:36:07;;;;;;;;;;;;;;;;;;5049702;28;19925;-66
2023/03/07 01:38:33;;;;;;;;;;;;;;;;;;5047304;28;20381;-66
2023/03/07 01:40:59;;;;;;;;;;;;;;;;;;5034195;28;19921;-65
2023/03/07 01:43:25;;;;;;;;;;;;;;;;;;5052319;28;20003;-65
2023/03/07 01:45:51;;;;;;;;;;;;;;;;;;5052872;28;20007;-65
2023/03/07 01:48:17;;;;;;;;;;;;;;;;;;5050125;28;19921;-65
2023/03/07 01:50:43;;;;;;;;;;;;;;;;;;5051850;28;20011;-66
2023/03/07 01:53:08;;;;;;;;;;;;;;;;;;5051939;28;19924;-66
2023/03/07 01:55:34;;;;;;;;;;;;;;;;;;5041406;28;19929;-64
2023/03/07 01:58:00;;;;;;;;;;;;;;;;;;5052044;28;20315;-65
2023/03/07 02:00:29;;;;;;;;;;;;;;;;;;5051259;28;19989;-65
2023/03/07 02:02:55;;;;;;;;;;;;;;;;;;5050278;28;19929;-65
2023/03/07 02:05:21;;;;;;;;;;;;;;;;;;5049826;28;19924;-64
2023/03/07 02:07:47;;;;;;;;;;;;;;;;;;5050089;28;19928;-65
2023/03/07 02:10:12;;;;;;;;;;;;;;;;;;5045283;28;19975;-65
2023/03/07 02:12:38;;;;;;;;;;;;;;;;;;5047468;28;20471;-65
2023/03/07 02:15:04;;;;;;;;;;;;;;;;;;5051822;28;20259;-65
2023/03/07 02:17:30;;;;;;;;;;;;;;;;;;5048162;28;19974;-65
2023/03/07 02:19:56;;;;;;;;;;;;;;;;;;5052048;28;19924;-65
2023/03/07 02:22:22;;;;;;;;;;;;;;;;;;5029750;28;20431;-65
2023/03/07 02:24:48;;;;;;;;;;;;;;;;;;5050543;28;20393;-65
2023/03/07 02:27:14;;;;;;;;;;;;;;;;;;5048233;28;19974;-65
2023/03/07 02:29:40;;;;;;;;;;;;;;;;;;5051161;28;19924;-65
2023/03/07 02:32:06;;;;;;;;;;;;;;;;;;5032237;28;19921;-65
2023/03/07 02:34:31;;;;;;;;;;;;;;;;;;5049015;28;19990;-63
2023/03/07 02:36:57;;;;;;;;;;;;;;;;;;5030936;28;19924;-64
2023/03/07 02:39:23;;;;;;;;;;;;;;;;;;5049216;28;20378;-65
2023/03/07 02:41:52;;;;;;;;;;;;;;;;;;5048441;28;19929;-64
2023/03/07 02:44:17;;;;;;;;;;;;;;;;;;5050044;28;20277;-64
2023/03/07 02:46:43;;;;;;;;;;;;;;;;;;5051246;28;19920;-64
2023/03/07 02:49:09;;;;;;;;;;;;;;;;;;5049657;28;19921;-64
2023/03/07 02:51:35;;;;;;;;;;;;;;;;;;5050420;28;20439;-64
2023/03/07 02:54:01;;;;;;;;;;;;;;;;;;5051899;28;19929;-65
2023/03/07 02:56:27;;;;;;;;;;;;;;;;;;5043564;28;20342;-65
2023/03/07 02:58:53;;;;;;;;;;;;;;;;;;5032434;28;19925;-64
2023/03/07 03:01:19;;;;;;;;;;;;;;;;;;5049237;28;19928;-64
2023/03/07 03:03:45;;;;;;;;;;;;;;;;;;5049647;28;20019;-64
2023/03/07 03:06:10;;;;;;;;;;;;;;;;;;5052365;28;19931;-65
2023/03/07 03:08:36;;;;;;;;;;;;;;;;;;5033939;28;19928;-65
2023/03/07 03:11:02;;;;;;;;;;;;;;;;;;5049929;28;20409;-65
2023/03/07 03:13:28;;;;;;;;;;;;;;;;;;5046798;28;19925;-66
2023/03/07 03:15:54;;;;;;;;;;;;;;;;;;5050808;28;20547;-66
2023/03/07 03:18:20;;;;;;;;;;;;;;;;;;5051172;28;20011;-65
2023/03/07 03:20:46;;;;;;;;;;;;;;;;;;5050241;28;19924;-66
2023/03/07 03:23:12;;;;;;;;;;;;;;;;;;5050814;28;19932;-66
2023/03/07 03:25:38;;;;;;;;;;;;;;;;;;5051090;28;19925;-65
2023/03/07 03:28:03;;;;;;;;;;;;;;;;;;5052143;28;20043;-65
2023/03/07 03:30:34;;;;;;;;;;;;;;;;;;5054811;28;19975;-65
2023/03/07 03:33:00;;;;;;;;;;;;;;;;;;5052635;28;20003;-65
2023/03/07 03:35:26;;;;;;;;;;;;;;;;;;5054014;28;20601;-65
2023/03/07 03:37:52;;;;;;;;;;;;;;;;;;5049016;28;19929;-65
2023/03/07 03:40:18;;;;;;;;;;;;;;;;;;5055833;28;19924;-65
2023/03/07 03:42:43;;;;;;;;;;;;;;;;;;5055709;28;20369;-64
2023/03/07 03:45:09;;;;;;;;;;;;;;;;;;5055672;28;19927;-65
2023/03/07 03:47:35;;;;;;;;;;;;;;;;;;5054400;28;19936;-65
2023/03/07 03:50:01;;;;;;;;;;;;;;;;;;5048454;28;19931;-65
2023/03/07 03:52:27;;;;;;;;;;;;;;;;;;5053038;28;20411;-65
2023/03/07 03:54:53;;;;;;;;;;;;;;;;;;5054482;28;20337;-65
2023/03/07 03:57:19;;;;;;;;;;;;;;;;;;5054242;28;19964;-65
2023/03/07 03:59:45;;;;;;;;;;;;;;;;;;5049485;28;19929;-65
2023/03/07 04:02:11;;;;;;;;;;;;;;;;;;5043692;28;20007;-65
2023/03/07 04:04:37;;;;;;;;;;;;;;;;;;5027853;28;19927;-65
2023/03/07 04:07:03;;;;;;;;;;;;;;;;;;5052825;28;19956;-65
2023/03/07 04:09:29;;;;;;;;;;;;;;;;;;5052930;28;20002;-65
2023/03/07 04:11:55;;;;;;;;;;;;;;;;;;5053537;28;19975;-65
2023/03/07 04:14:21;;;;;;;;;;;;;;;;;;5035664;28;20647;-65
2023/03/07 04:16:47;;;;;;;;;;;;;;;;;;5052280;28;19976;-64
2023/03/07 04:19:13;;;;;;;;;;;;;;;;;;5053562;28;19927;-65
2023/03/07 04:21:39;;;;;;;;;;;;;;;;;;5054016;28;20000;-65
2023/03/07 04:24:05;;;;;;;;;;;;;;;;;;5035047;28;20367;-65
2023/03/07 04:26:31;;;;;;;;;;;;;;;;;;5054882;28;19968;-64
2023/03/07 04:28:57;;;;;;;;;;;;;;;;;;5053559;28;19924;-64
2023/03/07 04:31:23;;;;;;;;;;;;;;;;;;5052894;28;19959;-64
2023/03/07 04:33:48;;;;;;;;;;;;;;;;;;5054032;28;19929;-64
2023/03/07 04:36:17;;;;;;;;;;;;;;;;;;5053231;28;19936;-65
2023/03/07 04:38:43;;;;;;;;;;;;;;;;;;5052911;28;19924;-65
2023/03/07 04:41:09;;;;;;;;;;;;;;;;;;5049126;28;19990;-65
2023/03/07 04:43:35;;;;;;;;;;;;;;;;;;5053044;28;20367;-65
2023/03/07 04:46:01;;;;;;;;;;;;;;;;;;5051052;28;19921;-65
2023/03/07 04:48:27;;;;;;;;;;;;;;;;;;5047743;28;20263;-65
2023/03/07 04:50:53;;;;;;;;;;;;;;;;;;5013359;28;20294;-65
2023/03/07 04:53:18;;;;;;;;;;;;;;;;;;5051386;28;19928;-65
2023/03/07 04:55:44;;;;;;;;;;;;;;;;;;5050838;28;19964;-65
2023/03/07 04:58:12;;;;;;;;;;;;;;;;;;5051847;28;19966;-65
2023/03/07 05:00:37;;;;;;;;;;;;;;;;;;5053058;28;19932;-65
2023/03/07 05:03:03;;;;;;;;;;;;;;;;;;5051867;28;19920;-65
2023/03/07 05:05:29;;;;;;;;;;;;;;;;;;5040529;28;20310;-65
2023/03/07 05:07:55;;;;;;;;;;;;;;;;;;5052570;28;19964;-65
2023/03/07 05:10:21;;;;;;;;;;;;;;;;;;5052045;28;19924;-64
2023/03/07 05:12:47;;;;;;;;;;;;;;;;;;5052071;28;19921;-64
2023/03/07 05:15:13;;;;;;;;;;;;;;;;;;5047943;28;19928;-64
2023/03/07 05:17:39;;;;;;;;;;;;;;;;;;5033743;28;20354;-65
2023/03/07 05:20:05;;;;;;;;;;;;;;;;;;5040017;28;20014;-65
2023/03/07 05:22:31;;;;;;;;;;;;;;;;;;5017326;28;19921;-65
2023/03/07 05:24:57;;;;;;;;;;;;;;;;;;5052275;28;19925;-65
2023/03/07 05:27:23;;;;;;;;;;;;;;;;;;5032372;28;19925;-65
2023/03/07 05:29:49;;;;;;;;;;;;;;;;;;5051631;28;19928;-64
2023/03/07 05:32:15;;;;;;;;;;;;;;;;;;5050930;28;19929;-65
2023/03/07 05:34:41;;;;;;;;;;;;;;;;;;5051580;28;20413;-65
2023/03/07 05:37:07;;;;;;;;;;;;;;;;;;5050319;28;20354;-66
2023/03/07 05:39:33;;;;;;;;;;;;;;;;;;5032512;28;19924;-64
2023/03/07 05:41:58;;;;;;;;;;;;;;;;;;5048963;28;20313;-65
2023/03/07 05:44:24;;;;;;;;;;;;;;;;;;5029643;28;19975;-65
2023/03/07 05:46:50;;;;;;;;;;;;;;;;;;5024234;28;20008;-65
2023/03/07 05:49:16;;;;;;;;;;;;;;;;;;5049783;28;19924;-65
2023/03/07 05:51:42;;;;;;;;;;;;;;;;;;5051865;28;19943;-65
2023/03/07 05:54:08;;;;;;;;;;;;;;;;;;5032156;28;20366;-65
2023/03/07 05:56:34;;;;;;;;;;;;;;;;;;5042865;28;19925;-65
2023/03/07 05:59:00;;;;;;;;;;;;;;;;;;5049861;28;20445;-65
2023/03/07 06:01:26;;;;;;;;;;;;;;;;;;5036787;28;20397;-64
2023/03/07 06:03:52;;;;;;;;;;;;;;;;;;5047586;28;19921;-65
2023/03/07 06:06:18;;;;;;;;;;;;;;;;;;5029603;28;19935;-65
2023/03/07 06:08:43;;;;;;;;;;;;;;;;;;5048864;28;19921;-65
2023/03/07 06:11:10;;;;;;;;;;;;;;;;;;5047605;28;19990;-65
2023/03/07 06:13:36;;;;;;;;;;;;;;;;;;5046635;28;20374;-65
2023/03/07 06:16:02;;;;;;;;;;;;;;;;;;5031030;28;19928;-65
2023/03/07 06:18:28;;;;;;;;;;;;;;;;;;5049374;28;19924;-65
2023/03/07 06:20:54;;;;;;;;;;;;;;;;;;5047712;28;19925;-65
2023/03/07 06:23:20;;;;;;;;;;;;;;;;;;5050696;28;20393;-65
2023/03/07 06:25:46;;;;;;;;;;;;;;;;;;5036538;28;19920;-65
2023/03/07 06:28:11;;;;;;;;;;;;;;;;;;5049791;28;19928;-65
2023/03/07 06:30:37;;;;;;;;;;;;;;;;;;5049143;28;19920;-65
2023/03/07 06:33:03;;;;;;;;;;;;;;;;;;5049072;28;19951;-65
2023/03/07 06:35:29;;;;;;;;;;;;;;;;;;5023322;28;20461;-65
2023/03/07 06:37:55;;;;;;;;;;;;;;;;;;5052046;28;20354;-66
2023/03/07 06:40:21;;;;;;;;;;;;;;;;;;5051701;28;19996;-66
2023/03/07 06:42:47;;;;;;;;;;;;;;;;;;5047194;28;20370;-64
2023/03/07 06:45:13;;;;;;;;;;;;;;;;;;5049037;28;19932;-65
2023/03/07 06:47:39;;;;;;;;;;;;;;;;;;5028667;28;19925;-65
2023/03/07 06:50:05;;;;;;;;;;;;;;;;;;5044380;28;19931;-65
2023/03/07 06:52:30;;;;;;;;;;;;;;;;;;5049931;28;19924;-64
2023/03/07 06:54:56;;;;;;;;;;;;;;;;;;5050283;28;20023;-65
2023/03/07 06:57:22;;;;;;;;;;;;;;;;;;5049335;28;19920;-65
2023/03/07 06:59:48;;;;;;;;;;;;;;;;;;5049172;28;20325;-65
2023/03/07 07:02:14;;;;;;;;;;;;;;;;;;5047696;28;19925;-64
2023/03/07 07:04:40;;;;;;;;;;;;;;;;;;5045866;28;19947;-65
2023/03/07 07:07:06;;;;;;;;;;;;;;;;;;5036768;28;19922;-65
2023/03/07 07:09:32;;;;;;;;;;;;;;;;;;5039050;28;20376;-65
2023/03/07 07:11:58;;;;;;;;;;;;;;;;;;5049382;28;19925;-65
2023/03/07 07:14:24;;;;;;;;;;;;;;;;;;5029681;28;19920;-65
2023/03/07 07:16:50;;;;;;;;;;;;;;;;;;5048449;28;19936;-65
2023/03/07 07:19:16;;;;;;;;;;;;;;;;;;5048947;28;19924;-65
2023/03/07 07:21:41;;;;;;;;;;;;;;;;;;5049731;28;20434;-65
2023/03/07 07:24:07;;;;;;;;;;;;;;;;;;5014558;28;19920;-65
2023/03/07 07:26:33;;;;;;;;;;;;;;;;;;5013555;28;20382;-65
2023/03/07 07:28:59;;;;;;;;;;;;;;;;;;5048488;28;19974;-65
2023/03/07 07:31:25;;;;;;;;;;;;;;;;;;5049669;28;20457;-65
2023/03/07 07:33:51;;;;;;;;;;;;;;;;;;5048679;28;19970;-65
2023/03/07 07:36:17;;;;;;;;;;;;;;;;;;5021544;28;20020;-65
2023/03/07 07:38:43;;;;;;;;;;;;;;;;;;5043197;28;19921;-65
2023/03/07 07:41:09;;;;;;;;;;;;;;;;;;5049815;28;19928;-65
2023/03/07 07:43:34;;;;;;;;;;;;;;;;;;5049094;28;19967;-65
2023/03/07 07:46:00;;;;;;;;;;;;;;;;;;5047733;28;19921;-65
2023/03/07 07:48:26;;;;;;;;;;;;;;;;;;5049319;28;19951;-65
2023/03/07 07:50:52;;;;;;;;;;;;;;;;;;5050174;28;19925;-65
2023/03/07 07:53:18;;;;;;;;;;;;;;;;;;5043032;28;20381;-65
2023/03/07 07:55:44;;;;;;;;;;;;;;;;;;5047157;28;19929;-65
2023/03/07 07:58:10;;;;;;;;;;;;;;;;;;5047291;28;19920;-65
2023/03/07 08:00:36;;;;;;;;;;;;;;;;;;5010188;28;19944;-65
2023/03/07 08:03:02;;;;;;;;;;;;;;;;;;5043770;28;20358;-65
2023/03/07 08:05:28;;;;;;;;;;;;;;;;;;5043884;28;19921;-65
2023/03/07 08:07:55;;;;;;;;;;;;;;;;;;5042190;28;19921;-65
2023/03/07 08:10:21;;;;;;;;;;;;;;;;;;5012914;28;20456;-65
2023/03/07 08:12:49;;;;;;;;;;;;;;;;;;5049884;28;19931;-65
2023/03/07 08:15:15;;;;;;;;;;;;;;;;;;5034151;28;19929;-64
2023/03/07 08:17:41;;;;;;;;;;;;;;;;;;5051022;28;19935;-64
2023/03/07 08:20:09;;;;;;;;;;;;;;;;;;5032256;28;19925;-64
2023/03/07 08:22:35;;;;;;;;;;;;;;;;;;5036119;28;19982;-64
2023/03/07 08:25:01;;;;;;;;;;;;;;;;;;5054232;28;19952;-65
2023/03/07 08:27:27;;;;;;;;;;;;;;;;;;5053973;28;19921;-65
2023/03/07 08:29:52;;;;;;;;;;;;;;;;;;5036025;28;19924;-65
2023/03/07 08:32:18;;;;;;;;;;;;;;;;;;5053876;28;20046;-65
2023/03/07 08:34:44;;;;;;;;;;;;;;;;;;5038347;28;19925;-65
2023/03/07 08:37:10;;;;;;;;;;;;;;;;;;5047513;28;20382;-65
2023/03/07 08:39:36;;;;;;;;;;;;;;;;;;5051021;28;20008;-64
2023/03/07 08:42:02;;;;;;;;;;;;;;;;;;5053792;28;20029;-65
2023/03/07 08:44:28;;;;;;;;;;;;;;;;;;5054059;28;19928;-65
2023/03/07 08:46:54;;;;;;;;;;;;;;;;;;5052942;28;20416;-64
2023/03/07 08:49:20;;;;;;;;;;;;;;;;;;5043251;28;20015;-65
2023/03/07 08:51:46;;;;;;;;;;;;;;;;;;5052219;28;20256;-64
2023/03/07 08:54:11;;;;;;;;;;;;;;;;;;5035473;28;19921;-65
2023/03/07 08:56:37;;;;;;;;;;;;;;;;;;5052115;28;19925;-65
2023/03/07 08:59:03;;;;;;;;;;;;;;;;;;5053455;28;20003;-64
2023/03/07 09:01:29;;;;;;;;;;;;;;;;;;5053702;28;19925;-64
2023/03/07 09:03:55;;;;;;;;;;;;;;;;;;5033983;28;20322;-64
2023/03/07 09:06:21;;;;;;;;;;;;;;;;;;5051063;28;19920;-64
2023/03/07 09:08:47;;;;;;;;;;;;;;;;;;5034904;28;19989;-64
2023/03/07 09:11:13;;;;;;;;;;;;;;;;;;5053331;28;20496;-65
2023/03/07 09:13:39;;;;;;;;;;;;;;;;;;5041173;28;19925;-65
2023/03/07 09:16:04;;;;;;;;;;;;;;;;;;5034731;28;19982;-64
2023/03/07 09:18:30;;;;;;;;;;;;;;;;;;5051941;28;20287;-64
2023/03/07 09:20:56;;;;;;;;;;;;;;;;;;5046937;28;19938;-64
2023/03/07 09:23:22;;;;;;;;;;;;;;;;;;5052128;28;19925;-64
2023/03/07 09:25:48;;;;;;;;;;;;;;;;;;5049526;28;19929;-65
2023/03/07 09:28:14;;;;;;;;;;;;;;;;;;5051236;28;19994;-65
2023/03/07 09:30:40;;;;;;;;;;;;;;;;;;5050974;28;20663;-64
2023/03/07 09:33:06;;;;;;;;;;;;;;;;;;5061176;22;19934;-68
2023/03/07 09:35:32;;;;;;;;;;;;;;;;;;5071103;28;19952;-67
2023/03/07 09:37:58;;;;;;;;;;;;;;;;;;5089261;28;19920;-66
2023/03/07 09:40:23;;;;;;;;;;;;;;;;;;5083765;28;19955;-66
2023/03/07 09:42:49;;;;;;;;;;;;;;;;;;5090770;28;19952;-67
2023/03/07 09:45:15;;;;;;;;;;;;;;;;;;5079090;28;20315;-67
2023/03/07 09:47:41;;;;;;;;;;;;;;;;;;5073630;28;19929;-67
2023/03/07 09:50:07;;;;;;;;;;;;;;;;;;5078620;28;19947;-66
2023/03/07 09:52:33;;;;;;;;;;;;;;;;;;5070834;28;19924;-68
2023/03/07 09:54:59;;;;;;;;;;;;;;;;;;5071403;28;19924;-67
2023/03/07 09:57:25;;;;;;;;;;;;;;;;;;5070859;28;20252;-67
2023/03/07 09:59:51;;;;;;;;;;;;;;;;;;5091073;28;19977;-67
2023/03/07 10:02:17;;;;;;;;;;;;;;;;;;5083606;28;19924;-67
2023/03/07 10:04:43;;;;;;;;;;;;;;;;;;5076027;28;20471;-67
2023/03/07 10:07:09;;;;;;;;;;;;;;;;;;5069878;28;19924;-67
2023/03/07 10:09:35;;;;;;;;;;;;;;;;;;5071179;28;19928;-67
2023/03/07 10:12:01;;;;;;;;;;;;;;;;;;5069787;28;19921;-67
2023/03/07 10:14:26;;;;;;;;;;;;;;;;;;5075509;28;19958;-67
2023/03/07 10:16:52;;;;;;;;;;;;;;;;;;5071355;28;19932;-68
2023/03/07 10:19:18;;;;;;;;;;;;;;;;;;5064869;28;19928;-67
2023/03/07 10:21:44;;;;;;;;;;;;;;;;;;5070213;28;19966;-67
2023/03/07 10:24:10;;;;;;;;;;;;;;;;;;5070593;28;19929;-68
2023/03/07 10:26:36;;;;;;;;;;;;;;;;;;5072192;28;20281;-67
2023/03/07 10:29:02;;;;;;;;;;;;;;;;;;5071662;28;19924;-67
2023/03/07 10:31:28;;;;;;;;;;;;;;;;;;5073224;28;20069;-68
2023/03/07 10:33:54;;;;;;;;;;;;;;;;;;5074966;28;19931;-68
2023/03/07 10:36:20;;;;;;;;;;;;;;;;;;5074603;28;20031;-68
2023/03/07 10:38:45;;;;;;;;;;;;;;;;;;5071791;28;19938;-67
2023/03/07 10:41:11;;;;;;;;;;;;;;;;;;5070520;28;19924;-67
2023/03/07 10:43:37;;;;;;;;;;;;;;;;;;5071454;28;19925;-66
2023/03/07 10:46:03;;;;;;;;;;;;;;;;;;5073746;28;19924;-68
2023/03/07 10:48:29;;;;;;;;;;;;;;;;;;5080220;28;19924;-67
2023/03/07 10:50:55;;;;;;;;;;;;;;;;;;5067078;28;19936;-68
2023/03/07 10:53:21;;;;;;;;;;;;;;;;;;5068982;28;20287;-67
2023/03/07 10:55:47;;;;;;;;;;;;;;;;;;5069541;28;19978;-67
2023/03/07 10:58:15;;;;;;;;;;;;;;;;;;5076110;28;21268;-67
2023/03/07 11:00:41;;;;;;;;;;;;;;;;;;5070317;28;19925;-67
2023/03/07 11:03:06;;;;;;;;;;;;;;;;;;5089188;28;19939;-67
2023/03/07 11:05:32;;;;;;;;;;;;;;;;;;5067454;28;19979;-67
2023/03/07 11:07:58;;;;;;;;;;;;;;;;;;5078771;28;20285;-67
2023/03/07 11:10:24;;;;;;;;;;;;;;;;;;5065508;28;19990;-67
2023/03/07 11:12:50;;;;;;;;;;;;;;;;;;5084926;28;19923;-67
2023/03/07 11:15:16;;;;;;;;;;;;;;;;;;5086558;28;19939;-67
2023/03/07 11:17:42;;;;;;;;;;;;;;;;;;5072572;28;19924;-68
2023/03/07 11:20:08;;;;;;;;;;;;;;;;;;5062926;28;19982;-67
2023/03/07 11:22:35;;;;;;;;;;;;;;;;;;5068482;28;19924;-68
2023/03/07 11:25:01;;;;;;;;;;;;;;;;;;5067108;28;19935;-68
2023/03/07 11:27:27;;;;;;;;;;;;;;;;;;5068958;28;19924;-67
2023/03/07 11:29:53;;;;;;;;;;;;;;;;;;5064696;28;20316;-67
2023/03/07 11:32:19;;;;;;;;;;;;;;;;;;5072393;28;20343;-67
2023/03/07 11:34:45;;;;;;;;;;;;;;;;;;5069864;28;19928;-66
2023/03/07 11:37:11;;;;;;;;;;;;;;;;;;5069514;28;19951;-68
2023/03/07 11:39:36;;;;;;;;;;;;;;;;;;5068436;28;19932;-67
2023/03/07 11:42:02;;;;;;;;;;;;;;;;;;5073607;28;19999;-67
2023/03/07 11:44:28;;;;;;;;;;;;;;;;;;5082554;28;19920;-67
2023/03/07 11:46:54;;;;;;;;;;;;;;;;;;5070245;28;20026;-68
2023/03/07 11:49:20;;;;;;;;;;;;;;;;;;5086822;28;19924;-67
2023/03/07 11:51:46;;;;;;;;;;;;;;;;;;5073271;28;20027;-68
2023/03/07 11:54:12;;;;;;;;;;;;;;;;;;5071107;28;19965;-68
2023/03/07 11:56:38;;;;;;;;;;;;;;;;;;5069078;28;19946;-67
2023/03/07 11:59:04;;;;;;;;;;;;;;;;;;5065608;28;19928;-67
2023/03/07 12:01:30;;;;;;;;;;;;;;;;;;5083359;28;20346;-68
2023/03/07 12:03:55;;;;;;;;;;;;;;;;;;5060948;28;19921;-67
2023/03/07 12:06:21;;;;;;;;;;;;;;;;;;5063143;28;19924;-68
2023/03/07 12:08:48;;;;;;;;;;;;;;;;;;5083742;28;19920;-68
2023/03/07 12:11:13;;;;;;;;;;;;;;;;;;5072246;28;19927;-68
2023/03/07 12:13:39;;;;;;;;;;;;;;;;;;5073020;28;19924;-68
2023/03/07 12:16:05;;;;;;;;;;;;;;;;;;5073198;28;20385;-66
2023/03/07 12:18:31;;;;;;;;;;;;;;;;;;5072674;28;20409;-68
2023/03/07 12:20:57;;;;;;;;;;;;;;;;;;5073831;28;20476;-67
2023/03/07 12:23:23;;;;;;;;;;;;;;;;;;5082746;28;19928;-67
2023/03/07 12:25:49;;;;;;;;;;;;;;;;;;5082479;28;19924;-66
2023/03/07 12:28:15;;;;;;;;;;;;;;;;;;5075057;28;20389;-67
2023/03/07 12:30:41;;;;;;;;;;;;;;;;;;5072934;28;19986;-66
2023/03/07 12:33:07;;;;;;;;;;;;;;;;;;5069256;28;19998;-66
2023/03/07 12:35:33;;;;;;;;;;;;;;;;;;5072826;28;19936;-67
2023/03/07 12:37:58;;;;;;;;;;;;;;;;;;5079692;28;19920;-67
2023/03/07 12:40:24;;;;;;;;;;;;;;;;;;5082059;28;20315;-67
2023/03/07 12:42:50;;;;;;;;;;;;;;;;;;5078057;28;19921;-67
2023/03/07 12:45:16;;;;;;;;;;;;;;;;;;5075658;28;19935;-67
2023/03/07 12:47:42;;;;;;;;;;;;;;;;;;5077724;28;19927;-67
2023/03/07 12:50:08;;;;;;;;;;;;;;;;;;5079534;28;19924;-68
2023/03/07 12:52:34;;;;;;;;;;;;;;;;;;5072662;28;20441;-68
2023/03/07 12:55:00;;;;;;;;;;;;;;;;;;5054802;28;20011;-67
2023/03/07 12:57:26;;;;;;;;;;;;;;;;;;5092406;28;19930;-67
2023/03/07 12:59:52;;;;;;;;;;;;;;;;;;5090299;28;19920;-66
2023/03/07 13:02:18;;;;;;;;;;;;;;;;;;5072490;28;19924;-67
2023/03/07 13:04:44;;;;;;;;;;;;;;;;;;5076519;28;19924;-67
2023/03/07 13:07:09;;;;;;;;;;;;;;;;;;5090566;28;19924;-67
2023/03/07 13:09:35;;;;;;;;;;;;;;;;;;5084905;28;19920;-66
2023/03/07 13:12:01;;;;;;;;;;;;;;;;;;5073770;28;20611;-66
2023/03/07 13:14:27;;;;;;;;;;;;;;;;;;5073867;28;19924;-67
2023/03/07 13:16:53;;;;;;;;;;;;;;;;;;5069745;28;20281;-67
2023/03/07 13:19:19;;;;;;;;;;;;;;;;;;5071765;28;19920;-66
2023/03/07 13:21:45;;;;;;;;;;;;;;;;;;5070101;28;19951;-66
2023/03/07 13:24:11;;;;;;;;;;;;;;;;;;5082605;28;19928;-67
2023/03/07 13:26:37;;;;;;;;;;;;;;;;;;5079770;28;19974;-66
2023/03/07 13:29:03;;;;;;;;;;;;;;;;;;5076325;28;19990;-66
2023/03/07 13:31:29;;;;;;;;;;;;;;;;;;5082970;28;20031;-67
2023/03/07 13:33:55;;;;;;;;;;;;;;;;;;5084371;28;19924;-66
2023/03/07 13:36:21;;;;;;;;;;;;;;;;;;5068622;28;20275;-67
2023/03/07 13:38:47;;;;;;;;;;;;;;;;;;5071414;28;19920;-67
2023/03/07 13:41:13;;;;;;;;;;;;;;;;;;5076129;28;19970;-67
2023/03/07 13:43:39;;;;;;;;;;;;;;;;;;5076108;28;19928;-67
2023/03/07 13:46:05;;;;;;;;;;;;;;;;;;5073403;28;20331;-67
2023/03/07 13:48:30;;;;;;;;;;;;;;;;;;5071040;28;19921;-67
2023/03/07 13:50:56;;;;;;;;;;;;;;;;;;5069734;28;19935;-66
2023/03/07 13:53:22;;;;;;;;;;;;;;;;;;5072701;28;19999;-67
2023/03/07 13:55:49;;;;;;;;;;;;;;;;;;5068600;28;19925;-66
2023/03/07 13:58:15;;;;;;;;;;;;;;;;;;5072837;28;20539;-66
2023/03/07 14:00:41;;;;;;;;;;;;;;;;;;5070541;28;19920;-67
2023/03/07 14:03:07;;;;;;;;;;;;;;;;;;5072385;28;20081;-68
2023/03/07 14:05:33;;;;;;;;;;;;;;;;;;5077504;28;19924;-68
2023/03/07 14:07:59;;;;;;;;;;;;;;;;;;5072329;28;19963;-67
2023/03/07 14:10:25;;;;;;;;;;;;;;;;;;5069229;28;20011;-67
2023/03/07 14:12:51;;;;;;;;;;;;;;;;;;5072453;28;19920;-66
2023/03/07 14:15:16;;;;;;;;;;;;;;;;;;5068496;28;19994;-66
2023/03/07 14:17:42;;;;;;;;;;;;;;;;;;5076550;28;19928;-67
2023/03/07 14:20:10;;;;;;;;;;;;;;;;;;5071471;28;19966;-66
2023/03/07 14:22:36;;;;;;;;;;;;;;;;;;5070149;28;19930;-67
2023/03/07 14:25:03;;;;;;;;;;;;;;;;;;5071498;28;20011;-67
2023/03/07 14:27:29;;;;;;;;;;;;;;;;;;5072409;28;19931;-67
2023/03/07 14:29:55;;;;;;;;;;;;;;;;;;5078134;28;19924;-67
2023/03/07 14:32:21;;;;;;;;;;;;;;;;;;5083929;28;19935;-68
2023/03/07 14:34:48;;;;;;;;;;;;;;;;;;5070192;28;19928;-68
2023/03/07 14:37:14;;;;;;;;;;;;;;;;;;5069015;28;19928;-67
2023/03/07 14:39:39;;;;;;;;;;;;;;;;;;5067524;28;19920;-67
2023/03/07 14:42:05;;;;;;;;;;;;;;;;;;5073322;28;20309;-67
2023/03/07 14:44:31;;;;;;;;;;;;;;;;;;5077046;28;19925;-67
2023/03/07 14:46:57;;;;;;;;;;;;;;;;;;5076610;28;20007;-67
2023/03/07 14:49:23;;;;;;;;;;;;;;;;;;5088074;28;20018;-67
2023/03/07 14:51:49;;;;;;;;;;;;;;;;;;5091439;28;19920;-67
2023/03/07 14:54:15;;;;;;;;;;;;;;;;;;5079706;28;20389;-67
2023/03/07 14:56:41;;;;;;;;;;;;;;;;;;5057802;28;20332;-67
2023/03/07 14:59:07;;;;;;;;;;;;;;;;;;5075216;28;19966;-67
2023/03/07 15:01:34;;;;;;;;;;;;;;;;;;5078650;28;20047;-68
2023/03/07 15:04:00;;;;;;;;;;;;;;;;;;5073651;28;20431;-67
2023/03/07 15:06:26;;;;;;;;;;;;;;;;;;5053481;28;19921;-68
2023/03/07 15:08:51;;;;;;;;;;;;;;;;;;5077104;28;20023;-67
2023/03/07 15:11:17;;;;;;;;;;;;;;;;;;5088563;28;20279;-68
2023/03/07 15:13:44;;;;;;;;;;;;;;;;;;5071686;28;19921;-69
2023/03/07 15:16:10;;;;;;;;;;;;;;;;;;5071408;28;20340;-68
2023/03/07 15:18:36;;;;;;;;;;;;;;;;;;5070935;28;19931;-67
2023/03/07 15:21:02;;;;;;;;;;;;;;;;;;5071392;28;19920;-68
2023/03/07 15:23:28;;;;;;;;;;;;;;;;;;5068934;28;20397;-67
2023/03/07 15:25:54;;;;;;;;;;;;;;;;;;5075158;28;20380;-68
2023/03/07 15:28:21;;;;;;;;;;;;;;;;;;5057276;28;19967;-68
2023/03/07 15:30:47;;;;;;;;;;;;;;;;;;5053636;28;19929;-68
2023/03/07 15:33:14;;;;;;;;;;;;;;;;;;5081550;22;20384;-65
2023/03/07 15:35:40;;;;;;;;;;;;;;;;;;5061579;28;19925;-65
2023/03/07 15:38:06;;;;;;;;;;;;;;;;;;5083116;28;20268;-65
2023/03/07 15:40:32;;;;;;;;;;;;;;;;;;5084975;28;19920;-65
2023/03/07 15:42:58;;;;;;;;;;;;;;;;;;5063429;28;19929;-65
2023/03/07 15:45:23;;;;;;;;;;;;;;;;;;5074261;28;19931;-65
2023/03/07 15:47:49;;;;;;;;;;;;;;;;;;5055758;28;19931;-64
2023/03/07 15:50:15;;;;;;;;;;;;;;;;;;5050611;28;19920;-65
2023/03/07 15:52:41;;;;;;;;;;;;;;;;;;5080534;28;20428;-63
2023/03/07 15:55:07;;;;;;;;;;;;;;;;;;5069257;28;19967;-64
2023/03/07 15:57:33;;;;;;;;;;;;;;;;;;5068720;28;20278;-64
2023/03/07 15:59:59;;;;;;;;;;;;;;;;;;5068347;28;19974;-64
2023/03/07 16:02:25;;;;;;;;;;;;;;;;;;5067651;28;19924;-64
2023/03/07 16:04:52;;;;;;;;;;;;;;;;;;5050509;28;19932;-64
2023/03/07 16:07:18;;;;;;;;;;;;;;;;;;5055650;28;19925;-64
2023/03/07 16:09:44;;;;;;;;;;;;;;;;;;5056637;28;19969;-64
2023/03/07 16:12:10;;;;;;;;;;;;;;;;;;5067267;28;20004;-64
2023/03/07 16:14:36;;;;;;;;;;;;;;;;;;5054816;28;20376;-64
2023/03/07 16:17:02;;;;;;;;;;;;;;;;;;5068190;28;19924;-64
2023/03/07 16:19:27;;;;;;;;;;;;;;;;;;5074434;28;19931;-64
2023/03/07 16:21:53;;;;;;;;;;;;;;;;;;5076123;28;19924;-64
2023/03/07 16:24:19;;;;;;;;;;;;;;;;;;5048038;28;19975;-64
2023/03/07 16:26:45;;;;;;;;;;;;;;;;;;5045881;28;19925;-64
2023/03/07 16:29:11;;;;;;;;;;;;;;;;;;5071034;28;19981;-64
2023/03/07 16:31:37;;;;;;;;;;;;;;;;;;5068259;28;19979;-64
2023/03/07 16:34:03;;;;;;;;;;;;;;;;;;5063136;28;20043;-64
2023/03/07 16:36:29;;;;;;;;;;;;;;;;;;5047906;28;19928;-63